createdAt,value
2018-07-05T00:00:26.918Z,6.30
2018-07-05T00:03:07.691Z,6.27
2018-07-05T00:05:54.247Z,5.80
2018-07-05T00:08:40.957Z,5.47
2018-07-05T00:11:27.391Z,5.78
2018-07-05T00:14:14.034Z,6.00
2018-07-05T00:17:00.126Z,5.35
2018-07-05T00:19:46.480Z,5.10
2018-07-05T00:22:33.174Z,4.90
2018-07-05T00:25:19.606Z,5.00
2018-07-05T00:28:06.161Z,4.65
2018-07-05T00:30:52.816Z,5.45
2018-07-05T00:33:39.496Z,5.20
2018-07-05T00:36:27.281Z,5.56
2018-07-05T00:39:13.948Z,5.80
2018-07-05T00:42:00.783Z,5.93
2018-07-05T00:44:47.450Z,5.80
2018-07-05T00:47:34.179Z,6.43
2018-07-05T00:50:21.044Z,5.33
2018-07-05T00:53:07.714Z,5.43
2018-07-05T00:55:53.880Z,5.63
2018-07-05T00:58:40.425Z,5.58
2018-07-05T01:01:27.056Z,4.90
2018-07-05T01:04:13.488Z,5.08
2018-07-05T01:07:00.116Z,5.10
2018-07-05T01:09:46.385Z,5.35
2018-07-05T01:12:33.341Z,5.50
2018-07-05T01:15:20.172Z,4.97
2018-07-05T01:18:00.518Z,5.40
2018-07-05T01:20:47.156Z,5.10
2018-07-05T01:23:33.759Z,5.55
2018-07-05T01:26:20.420Z,5.03
2018-07-05T01:29:07.100Z,5.00
2018-07-05T01:31:53.685Z,5.40
2018-07-05T01:34:40.479Z,5.47
2018-07-05T01:37:27.118Z,5.60
2018-07-05T01:40:13.828Z,6.20
2018-07-05T01:43:00.609Z,4.95
2018-07-05T01:45:47.050Z,4.87
2018-07-05T01:48:33.735Z,5.67
2018-07-05T01:51:20.381Z,5.13
2018-07-05T01:54:07.106Z,5.00
2018-07-05T01:56:54.043Z,5.17
2018-07-05T01:59:40.765Z,5.53
2018-07-05T02:02:27.461Z,5.67
2018-07-05T02:05:13.877Z,5.20
2018-07-05T02:08:00.522Z,5.78
2018-07-05T02:10:47.096Z,5.70
2018-07-05T02:13:33.665Z,5.53
2018-07-05T02:16:20.440Z,5.07
2018-07-05T02:19:07.081Z,5.20
2018-07-05T02:21:53.731Z,5.80
2018-07-05T02:24:40.070Z,5.35
2018-07-05T02:27:26.466Z,5.80
2018-07-05T02:30:12.827Z,5.87
2018-07-05T02:32:59.160Z,5.40
2018-07-05T02:35:45.811Z,6.03
2018-07-05T02:38:32.612Z,5.97
2018-07-05T02:41:19.344Z,6.13
2018-07-05T02:44:06.129Z,5.72
2018-07-05T02:46:52.922Z,6.30
2018-07-05T02:49:39.622Z,6.20
2018-07-05T02:52:26.570Z,6.00
2018-07-05T02:55:13.392Z,5.43
2018-07-05T02:57:59.596Z,5.17
2018-07-05T03:00:46.685Z,4.78
2018-07-05T03:03:33.466Z,4.90
2018-07-05T03:06:19.951Z,5.12
2018-07-05T03:09:06.767Z,4.87
2018-07-05T03:11:53.481Z,5.07
2018-07-05T03:14:40.371Z,4.40
2018-07-05T03:17:27.214Z,4.83
2018-07-05T03:20:14.117Z,4.53
2018-07-05T03:23:00.896Z,4.83
2018-07-05T03:25:47.936Z,4.67
2018-07-05T03:28:34.662Z,4.33
2018-07-05T03:31:21.381Z,4.70
2018-07-05T03:34:07.980Z,4.20
2018-07-05T03:36:55.013Z,5.30
2018-07-05T03:39:41.500Z,5.43
2018-07-05T03:42:28.425Z,6.23
2018-07-05T03:45:15.084Z,5.47
2018-07-05T03:48:01.679Z,5.20
2018-07-05T03:50:47.781Z,5.43
2018-07-05T03:53:34.325Z,6.10
2018-07-05T03:56:20.915Z,4.50
2018-07-05T03:59:07.715Z,4.73
2018-07-05T04:01:54.253Z,5.57
2018-07-05T04:04:40.759Z,5.27
2018-07-05T04:07:27.411Z,5.40
2018-07-05T04:10:14.270Z,4.73
2018-07-05T04:13:00.740Z,5.63
2018-07-05T04:15:47.470Z,5.10
2018-07-05T04:18:33.761Z,5.80
2018-07-05T04:21:20.117Z,6.07
2018-07-05T04:24:07.024Z,8.47
2018-07-05T04:26:53.505Z,18.25
2018-07-05T04:29:40.229Z,11.80
2018-07-05T04:32:26.607Z,12.50
2018-07-05T04:35:13.419Z,11.05
2018-07-05T04:37:59.896Z,9.70
2018-07-05T04:40:46.646Z,10.73
2018-07-05T04:43:33.066Z,7.07
2018-07-05T04:46:19.712Z,4.90
2018-07-05T04:49:06.380Z,5.28
2018-07-05T04:51:52.985Z,6.10
2018-07-05T04:54:39.587Z,6.00
2018-07-05T04:57:26.107Z,5.37
2018-07-05T05:00:12.692Z,5.30
2018-07-05T05:02:59.296Z,5.50
2018-07-05T05:05:45.890Z,5.30
2018-07-05T05:08:32.795Z,5.53
2018-07-05T05:11:19.614Z,5.53
2018-07-05T05:14:06.137Z,4.78
2018-07-05T05:16:52.877Z,5.23
2018-07-05T05:19:39.441Z,5.40
2018-07-05T05:22:26.176Z,4.73
2018-07-05T05:25:12.956Z,4.80
2018-07-05T05:27:59.581Z,3.97
2018-07-05T05:30:45.822Z,4.30
2018-07-05T05:33:32.581Z,5.00
2018-07-05T05:36:18.986Z,4.65
2018-07-05T05:39:06.136Z,4.60
2018-07-05T05:41:46.629Z,4.20
2018-07-05T05:44:33.136Z,4.77
2018-07-05T05:47:19.561Z,4.93
2018-07-05T05:50:06.380Z,5.20
2018-07-05T05:52:52.951Z,4.72
2018-07-05T05:55:39.265Z,5.20
2018-07-05T05:58:25.760Z,4.47
2018-07-05T06:01:12.225Z,4.47
2018-07-05T06:03:58.776Z,4.90
2018-07-05T06:06:45.382Z,6.00
2018-07-05T06:09:32.027Z,5.27
2018-07-05T06:12:18.621Z,5.93
2018-07-05T06:15:05.682Z,5.92
2018-07-05T06:17:52.590Z,5.30
2018-07-05T06:20:39.120Z,5.80
2018-07-05T06:23:25.676Z,6.30
2018-07-05T06:26:12.477Z,6.90
2018-07-05T06:28:59.450Z,6.43
2018-07-05T06:31:46.248Z,5.97
2018-07-05T06:34:32.475Z,6.00
2018-07-05T06:37:19.067Z,8.20
2018-07-05T06:40:05.355Z,7.97
2018-07-05T06:42:51.808Z,9.13
2018-07-05T06:45:38.630Z,10.20
2018-07-05T06:48:25.381Z,9.20
2018-07-05T06:51:12.846Z,9.30
2018-07-05T06:53:59.526Z,10.00
2018-07-05T06:56:46.448Z,11.00
2018-07-05T06:59:32.956Z,12.65
2018-07-05T07:02:19.865Z,9.10
2018-07-05T07:05:06.569Z,10.50
2018-07-05T07:07:53.190Z,7.73
2018-07-05T07:10:39.637Z,9.13
2018-07-05T07:13:26.108Z,7.70
2018-07-05T07:16:12.711Z,10.73
2018-07-05T07:18:59.415Z,11.95
2018-07-05T07:21:46.302Z,9.30
2018-07-05T07:24:33.075Z,7.85
2018-07-05T07:27:19.702Z,8.97
2018-07-05T07:30:06.404Z,11.70
2018-07-05T07:32:53.251Z,12.03
2018-07-05T07:35:39.931Z,9.33
2018-07-05T07:38:26.435Z,10.77
2018-07-05T07:41:13.200Z,11.80
2018-07-05T07:43:41.079Z,10.40
2018-07-05T07:46:09.004Z,13.50
2018-07-05T07:48:37.008Z,21.03
2018-07-05T07:51:04.859Z,11.43
2018-07-05T07:53:33.038Z,12.33
2018-07-05T07:56:01.638Z,11.53
2018-07-05T07:58:29.670Z,10.37
2018-07-05T08:00:57.580Z,12.43
2018-07-05T08:03:25.500Z,13.00
2018-07-05T08:05:53.411Z,13.93
2018-07-05T08:08:21.440Z,12.03
2018-07-05T08:10:49.489Z,13.53
2018-07-05T08:13:17.452Z,14.03
2018-07-05T08:15:45.473Z,15.13
2018-07-05T08:18:13.522Z,13.08
2018-07-05T08:20:41.506Z,13.00
2018-07-05T08:23:09.477Z,12.83
2018-07-05T08:25:37.912Z,15.37
2018-07-05T08:28:05.925Z,15.13
2018-07-05T08:30:33.911Z,13.20
2018-07-05T08:33:02.002Z,15.57
2018-07-05T08:35:30.112Z,23.40
2018-07-05T08:37:58.013Z,27.53
2018-07-05T08:40:26.550Z,20.72
2018-07-05T08:42:54.388Z,17.10
2018-07-05T08:45:22.297Z,16.97
2018-07-05T08:47:50.344Z,16.97
2018-07-05T08:50:18.197Z,17.75
2018-07-05T08:52:46.082Z,20.63
2018-07-05T08:55:14.112Z,18.37
2018-07-05T08:57:42.051Z,19.07
2018-07-05T09:00:10.115Z,23.00
2018-07-05T09:02:38.047Z,21.40
2018-07-05T09:05:06.039Z,17.83
2018-07-05T09:07:34.011Z,16.17
2018-07-05T09:10:01.910Z,13.00
2018-07-05T09:12:29.922Z,12.50
2018-07-05T09:14:57.798Z,20.57
2018-07-05T09:17:25.717Z,19.53
2018-07-05T09:19:53.743Z,19.13
2018-07-05T09:22:21.792Z,18.10
2018-07-05T09:24:49.662Z,18.80
2018-07-05T09:27:17.663Z,15.73
2018-07-05T09:29:46.008Z,19.77
2018-07-05T09:32:13.953Z,18.80
2018-07-05T09:34:42.134Z,18.50
2018-07-05T09:37:15.557Z,15.43
2018-07-05T09:39:43.653Z,14.28
2018-07-05T09:42:11.710Z,14.33
2018-07-05T09:44:39.658Z,17.87
2018-07-05T09:47:07.906Z,21.40
2018-07-05T09:49:35.830Z,19.53
2018-07-05T09:52:04.004Z,14.90
2018-07-05T09:54:31.935Z,17.77
2018-07-05T09:57:00.244Z,18.63
2018-07-05T09:59:28.057Z,10.63
2018-07-05T10:01:55.956Z,17.33
2018-07-05T10:04:24.036Z,16.17
2018-07-05T10:06:52.153Z,17.67
2018-07-05T10:09:20.067Z,11.50
2018-07-05T10:11:47.937Z,14.83
2018-07-05T10:14:15.913Z,11.15
2018-07-05T10:16:43.869Z,11.85
2018-07-05T10:19:11.889Z,14.98
2018-07-05T10:21:40.099Z,15.25
2018-07-05T10:24:08.154Z,14.63
2018-07-05T10:26:36.143Z,15.90
2018-07-05T10:29:23.033Z,12.27
2018-07-05T10:32:09.718Z,14.97
2018-07-05T10:34:37.598Z,15.90
2018-07-05T10:37:05.451Z,13.77
2018-07-05T10:39:34.203Z,10.65
2018-07-05T10:42:20.979Z,17.13
2018-07-05T10:45:02.063Z,18.13
2018-07-05T10:47:48.926Z,13.90
2018-07-05T10:50:35.491Z,12.30
2018-07-05T10:53:23.087Z,11.75
2018-07-05T10:56:09.832Z,8.90
2018-07-05T10:58:56.046Z,14.83
2018-07-05T11:01:42.791Z,13.03
2018-07-05T11:04:29.574Z,15.85
2018-07-05T11:07:16.243Z,14.77
2018-07-05T11:10:03.185Z,17.57
2018-07-05T11:12:49.585Z,15.50
2018-07-05T11:15:36.749Z,14.53
2018-07-05T11:18:23.773Z,13.30
2018-07-05T11:21:10.594Z,13.30
2018-07-05T11:23:51.249Z,11.93
2018-07-05T11:26:37.943Z,9.67
2018-07-05T11:29:24.502Z,12.53
2018-07-05T11:32:12.182Z,11.07
2018-07-05T11:34:59.167Z,9.47
2018-07-05T11:37:46.893Z,9.13
2018-07-05T11:40:33.306Z,9.07
2018-07-05T11:43:20.054Z,10.67
2018-07-05T11:46:00.564Z,12.07
2018-07-05T11:48:47.277Z,8.23
2018-07-05T11:51:34.074Z,7.67
2018-07-05T11:54:20.590Z,6.33
2018-07-05T11:57:07.302Z,5.20
2018-07-05T11:59:54.095Z,5.20
2018-07-05T12:02:40.786Z,4.50
2018-07-05T12:05:27.589Z,4.60
2018-07-05T12:08:13.808Z,4.93
2018-07-05T12:11:00.035Z,4.53
2018-07-05T12:13:46.417Z,4.30
2018-07-05T12:16:32.748Z,5.05
2018-07-05T12:19:19.059Z,4.63
2018-07-05T12:22:05.646Z,4.20
2018-07-05T12:24:52.383Z,5.07
2018-07-05T12:27:39.233Z,4.40
2018-07-05T12:30:25.878Z,3.90
2018-07-05T12:33:12.681Z,3.85
2018-07-05T12:36:00.547Z,4.36
2018-07-05T12:38:46.982Z,4.03
2018-07-05T12:41:27.493Z,4.90
2018-07-05T12:44:14.273Z,4.10
2018-07-05T12:47:00.852Z,4.23
2018-07-05T12:49:47.453Z,4.03
2018-07-05T12:52:33.960Z,3.40
2018-07-05T12:55:20.437Z,3.33
2018-07-05T12:58:07.085Z,3.70
2018-07-05T13:00:53.865Z,3.15
2018-07-05T13:03:40.639Z,2.73
2018-07-05T13:06:27.244Z,3.20
2018-07-05T13:09:14.766Z,3.23
2018-07-05T13:12:01.337Z,3.40
2018-07-05T13:14:47.958Z,3.90
2018-07-05T13:17:28.813Z,3.22
2018-07-05T13:20:15.384Z,3.77
2018-07-05T13:23:02.274Z,8.08
2018-07-05T13:25:49.000Z,6.10
2018-07-05T13:28:36.113Z,4.87
2018-07-05T13:31:22.708Z,4.60
2018-07-05T13:34:09.369Z,2.90
2018-07-05T13:36:56.077Z,10.47
2018-07-05T13:39:43.117Z,2.47
2018-07-05T13:42:29.823Z,2.70
2018-07-05T13:45:16.606Z,2.80
2018-07-05T13:48:03.084Z,2.90
2018-07-05T13:50:49.958Z,2.90
2018-07-05T13:53:36.609Z,3.20
2018-07-05T13:56:23.372Z,2.87
2018-07-05T13:59:09.692Z,2.67
2018-07-05T14:01:56.483Z,3.02
2018-07-05T14:04:42.749Z,2.60
2018-07-05T14:07:29.537Z,3.20
2018-07-05T14:10:16.496Z,3.10
2018-07-05T14:13:03.412Z,2.47
2018-07-05T14:15:50.363Z,2.20
2018-07-05T14:18:37.204Z,2.93
2018-07-05T14:21:24.472Z,3.10
2018-07-05T14:24:11.526Z,2.63
2018-07-05T14:26:58.224Z,2.58
2018-07-05T14:29:44.952Z,2.23
2018-07-05T14:32:31.756Z,2.90
2018-07-05T14:35:18.301Z,2.50
2018-07-05T14:38:05.124Z,2.42
2018-07-05T14:40:51.928Z,2.23
2018-07-05T14:43:38.785Z,2.57
2018-07-05T14:46:19.555Z,2.53
2018-07-05T14:49:06.237Z,2.83
2018-07-05T14:51:53.084Z,2.13
2018-07-05T14:54:39.884Z,2.20
2018-07-05T14:57:26.664Z,2.57
2018-07-05T15:00:13.362Z,2.30
2018-07-05T15:02:59.695Z,2.30
2018-07-05T15:05:46.883Z,3.40
2018-07-05T15:08:33.380Z,3.07
2018-07-05T15:11:20.212Z,2.80
2018-07-05T15:14:07.036Z,2.93
2018-07-05T15:16:53.997Z,2.70
2018-07-05T15:19:42.578Z,2.50
2018-07-05T15:22:29.169Z,2.50
2018-07-05T15:25:15.524Z,2.57
2018-07-05T15:28:02.076Z,2.03
2018-07-05T15:30:48.311Z,2.10
2018-07-05T15:33:34.977Z,2.50
2018-07-05T15:36:21.745Z,2.00
2018-07-05T15:39:08.106Z,2.40
2018-07-05T15:41:56.045Z,2.43
2018-07-05T15:44:42.744Z,2.40
2018-07-05T15:47:29.500Z,1.83
2018-07-05T15:50:16.352Z,2.00
2018-07-05T15:53:03.190Z,2.20
2018-07-05T15:55:49.838Z,2.40
2018-07-05T15:58:36.714Z,2.77
2018-07-05T16:01:23.344Z,2.60
2018-07-05T16:04:10.403Z,3.17
2018-07-05T16:06:56.538Z,2.60
2018-07-05T16:09:43.788Z,2.67
2018-07-05T16:12:30.437Z,2.40
2018-07-05T16:15:17.251Z,2.72
2018-07-05T16:18:04.008Z,2.43
2018-07-05T16:20:50.807Z,2.63
2018-07-05T16:23:37.074Z,2.90
2018-07-05T16:26:23.757Z,2.50
2018-07-05T16:29:10.305Z,2.40
2018-07-05T16:31:57.349Z,2.87
2018-07-05T16:34:43.824Z,2.40
2018-07-05T16:37:30.625Z,2.47
2018-07-05T16:40:17.348Z,2.23
2018-07-05T16:43:04.089Z,2.47
2018-07-05T16:45:50.770Z,2.47
2018-07-05T16:48:37.581Z,2.30
2018-07-05T16:51:24.323Z,2.20
2018-07-05T16:54:10.801Z,2.03
2018-07-05T16:56:57.054Z,2.40
2018-07-05T16:59:43.844Z,2.47
2018-07-05T17:02:30.658Z,2.40
2018-07-05T17:05:17.204Z,2.03
2018-07-05T17:08:04.091Z,13.23
2018-07-05T17:10:50.879Z,3.15
2018-07-05T17:13:37.608Z,2.40
2018-07-05T17:16:24.321Z,2.50
2018-07-05T17:19:11.128Z,3.23
2018-07-05T17:21:57.648Z,2.80
2018-07-05T17:24:44.413Z,1.90
2018-07-05T17:27:30.955Z,2.22
2018-07-05T17:30:17.588Z,1.80
2018-07-05T17:33:04.139Z,2.53
2018-07-05T17:35:50.708Z,2.60
2018-07-05T17:38:37.776Z,2.40
2018-07-05T17:41:24.549Z,2.67
2018-07-05T17:44:11.343Z,9.65
2018-07-05T17:46:58.039Z,4.07
2018-07-05T17:49:44.690Z,3.43
2018-07-05T17:52:31.149Z,2.50
2018-07-05T17:55:17.648Z,2.55
2018-07-05T17:58:04.408Z,2.70
2018-07-05T18:00:52.218Z,2.73
2018-07-05T18:03:38.698Z,3.00
2018-07-05T18:06:25.352Z,2.62
2018-07-05T18:09:11.977Z,1.57
2018-07-05T18:11:58.571Z,1.83
2018-07-05T18:14:45.213Z,2.13
2018-07-05T18:17:31.999Z,2.10
2018-07-05T18:20:18.914Z,2.02
2018-07-05T18:23:05.590Z,1.77
2018-07-05T18:25:52.274Z,2.70
2018-07-05T18:28:39.217Z,2.70
2018-07-05T18:31:26.134Z,2.00
2018-07-05T18:34:12.942Z,1.70
2018-07-05T18:36:59.714Z,1.80
2018-07-05T18:39:46.378Z,1.57
2018-07-05T18:42:32.908Z,2.45
2018-07-05T18:45:19.464Z,2.27
2018-07-05T18:48:06.303Z,1.93
2018-07-05T18:50:52.928Z,1.57
2018-07-05T18:53:39.275Z,1.80
2018-07-05T18:56:25.880Z,1.33
2018-07-05T18:59:12.468Z,1.77
2018-07-05T19:01:58.959Z,1.67
2018-07-05T19:04:45.838Z,1.60
2018-07-05T19:07:32.804Z,1.80
2018-07-05T19:10:19.377Z,3.20
2018-07-05T19:13:06.082Z,1.80
2018-07-05T19:15:52.752Z,1.80
2018-07-05T19:18:33.356Z,1.70
2018-07-05T19:21:20.607Z,1.47
2018-07-05T19:24:07.513Z,1.60
2018-07-05T19:26:54.397Z,1.40
2018-07-05T19:29:40.903Z,1.47
2018-07-05T19:32:27.815Z,1.50
2018-07-05T19:35:14.353Z,1.50
2018-07-05T19:38:01.280Z,5.30
2018-07-05T19:40:47.924Z,1.73
2018-07-05T19:43:34.798Z,2.00
2018-07-05T19:46:15.590Z,1.50
2018-07-05T19:49:02.136Z,2.00
2018-07-05T19:51:48.957Z,1.67
2018-07-05T19:54:35.779Z,1.50
2018-07-05T19:57:22.691Z,1.70
2018-07-05T20:00:09.533Z,1.60
2018-07-05T20:02:56.500Z,1.50
2018-07-05T20:05:43.134Z,1.62
2018-07-05T20:08:30.054Z,1.33
2018-07-05T20:11:10.799Z,1.80
2018-07-05T20:13:57.368Z,1.40
2018-07-05T20:16:44.206Z,1.30
2018-07-05T20:19:30.871Z,2.20
2018-07-05T20:22:19.841Z,6.42
2018-07-05T20:25:06.898Z,3.20
2018-07-05T20:27:53.667Z,2.08
2018-07-05T20:30:40.377Z,3.10
2018-07-05T20:33:27.278Z,3.43
2018-07-05T20:36:13.700Z,3.33
2018-07-05T20:39:00.401Z,2.27
2018-07-05T20:41:47.175Z,2.20
2018-07-05T20:44:33.403Z,2.17
2018-07-05T20:47:20.026Z,1.80
2018-07-05T20:50:07.124Z,2.17
2018-07-05T20:52:53.628Z,1.70
2018-07-05T20:55:40.120Z,1.60
2018-07-05T20:58:26.878Z,1.67
2018-07-05T21:01:13.660Z,1.67
2018-07-05T21:04:00.473Z,1.70
2018-07-05T21:06:47.178Z,1.55
2018-07-05T21:09:34.081Z,1.57
2018-07-05T21:12:20.248Z,1.50
2018-07-05T21:15:07.103Z,1.70
2018-07-05T21:17:53.998Z,1.70
2018-07-05T21:20:40.175Z,1.80
2018-07-05T21:23:26.974Z,1.80
2018-07-05T21:26:13.517Z,1.70
2018-07-05T21:28:59.907Z,1.40
2018-07-05T21:31:46.413Z,1.52
2018-07-05T21:34:33.122Z,1.80
2018-07-05T21:37:19.795Z,1.80
2018-07-05T21:40:06.291Z,1.70
2018-07-05T21:42:52.923Z,8.15
2018-07-05T21:45:39.503Z,12.60
2018-07-05T21:48:26.004Z,5.60
2018-07-05T21:51:12.380Z,2.37
2018-07-05T21:53:59.117Z,1.87
2018-07-05T21:56:46.217Z,2.43
2018-07-05T21:59:33.067Z,2.27
2018-07-05T22:02:19.814Z,2.30
2018-07-05T22:05:10.513Z,1.80
2018-07-05T22:07:57.308Z,1.90
2018-07-05T22:10:44.140Z,1.60
2018-07-05T22:13:30.880Z,1.52
2018-07-05T22:16:17.515Z,2.13
2018-07-05T22:19:09.335Z,1.90
2018-07-05T22:22:00.748Z,2.30
2018-07-05T22:24:52.443Z,2.00
2018-07-05T22:27:44.462Z,1.80
2018-07-05T22:30:36.496Z,2.40
2018-07-05T22:33:22.717Z,1.63
2018-07-05T22:36:09.442Z,2.00
2018-07-05T22:38:56.173Z,2.20
2018-07-05T22:41:42.816Z,2.17
2018-07-05T22:44:29.403Z,1.80
2018-07-05T22:47:16.074Z,1.77
2018-07-05T22:50:03.124Z,1.90
2018-07-05T22:52:49.603Z,2.10
2018-07-05T22:55:35.853Z,1.73
2018-07-05T22:58:22.643Z,2.52
2018-07-05T23:01:09.356Z,26.30
2018-07-05T23:03:56.357Z,13.72
2018-07-05T23:06:42.860Z,10.60
2018-07-05T23:09:29.659Z,8.10
2018-07-05T23:12:15.872Z,7.50
2018-07-05T23:15:02.463Z,5.10
2018-07-05T23:17:49.264Z,9.27
2018-07-05T23:20:35.534Z,7.20
2018-07-05T23:23:21.937Z,5.07
2018-07-05T23:26:08.688Z,3.70
2018-07-05T23:28:55.352Z,3.70
2018-07-05T23:31:41.957Z,4.27
2018-07-05T23:34:28.860Z,4.27
2018-07-05T23:37:15.685Z,4.00
2018-07-05T23:40:02.335Z,3.50
2018-07-05T23:42:49.249Z,3.13
2018-07-05T23:45:35.964Z,2.43
2018-07-05T23:48:22.568Z,2.50
2018-07-05T23:51:09.439Z,2.05
2018-07-05T23:53:56.248Z,2.30
2018-07-05T23:56:42.900Z,1.93
2018-07-05T23:59:29.804Z,2.03
